Ortonville, Minnesota
Current Conditions -  °F | °C
As of 11:14 AM on Sunday 21 Dec 2014 (Local Time) from KVVV Reporting Station
Haze Haze  
Wind Chill: 24°   Ceiling: 600
Heat Index: 32°   Visibility: 3mi
Dew Point: 28°   Wind: 10mph
Humidity: 87%   Direction: 160°SSE
Pressure: 29.7"   Gusts: NA
Location:  45.3°N, 96.44°W
Report Text: KVVV 211714Z AUTO 16009KT 3SM BR OVC006 00/M02 A2970 RMK AO2
Loading
Personal Weather Stations






























Interactive Weather Map New forecast layout! Learn more

10-Day Weather Forecast

Advertisements
Track Severe Weather on mobile